createdAt,value
2016-05-06T00:00:53.353Z,10.96
2016-05-06T00:01:53.496Z,10.93
2016-05-06T00:02:53.531Z,10.96
2016-05-06T00:03:53.518Z,10.96
2016-05-06T00:04:53.520Z,10.94
2016-05-06T00:05:53.491Z,10.9
2016-05-06T00:06:53.494Z,10.96
2016-05-06T00:07:53.512Z,10.96
2016-05-06T00:08:53.516Z,10.96
2016-05-06T00:09:53.518Z,10.84
2016-05-06T00:10:53.989Z,10.93
2016-05-06T00:11:53.523Z,10.82
2016-05-06T00:12:53.339Z,10.81
2016-05-06T00:13:53.497Z,10.82
2016-05-06T00:14:53.485Z,10.81
2016-05-06T00:15:53.487Z,10.86
2016-05-06T00:16:53.474Z,10.81
2016-05-06T00:17:53.476Z,10.74
2016-05-06T00:18:53.324Z,10.78
2016-05-06T00:19:53.498Z,10.76
2016-05-06T00:20:53.493Z,10.76
2016-05-06T00:21:53.497Z,10.78
2016-05-06T00:22:53.499Z,10.69
2016-05-06T00:23:53.471Z,10.61
2016-05-06T00:24:53.504Z,10.74
2016-05-06T00:25:53.538Z,10.68
2016-05-06T00:26:53.479Z,10.59
2016-05-06T00:27:53.482Z,10.59
2016-05-06T00:28:53.484Z,10.57
2016-05-06T00:29:53.487Z,10.56
2016-05-06T00:30:53.490Z,10.57
2016-05-06T00:31:53.492Z,10.61
2016-05-06T00:32:53.510Z,10.53
2016-05-06T00:33:53.310Z,10.56
2016-05-06T00:34:53.469Z,10.57
2016-05-06T00:35:53.473Z,10.56
2016-05-06T00:36:53.475Z,10.49
2016-05-06T00:37:53.461Z,10.53
2016-05-06T00:38:53.308Z,10.51
2016-05-06T00:39:53.451Z,10.51
2016-05-06T00:40:53.203Z,10.49
2016-05-06T00:41:53.456Z,10.59
2016-05-06T00:42:53.303Z,10.54
2016-05-06T00:43:53.462Z,10.54
2016-05-06T00:44:53.449Z,10.49
2016-05-06T00:45:53.311Z,10.53
2016-05-06T00:46:53.469Z,10.49
2016-05-06T00:47:53.457Z,10.49
2016-05-06T00:48:53.444Z,10.57
2016-05-06T00:49:53.291Z,10.51
2016-05-06T00:50:53.465Z,10.38
2016-05-06T00:51:53.327Z,10.42
2016-05-06T00:52:53.455Z,10.37
2016-05-06T00:53:53.458Z,10.31
2016-05-06T00:54:53.148Z,10.34
2016-05-06T00:55:53.854Z,10.35
2016-05-06T00:56:53.450Z,10.35
2016-05-06T00:57:53.452Z,10.31
2016-05-06T00:58:53.315Z,10.31
2016-05-06T00:59:53.442Z,10.3
2016-05-06T01:00:53.446Z,10.28
2016-05-06T01:01:53.448Z,10.26
2016-05-06T01:02:53.451Z,10.3
2016-05-06T01:03:53.437Z,10.17
2016-05-06T01:04:53.440Z,10.17
2016-05-06T01:05:53.443Z,10.16
2016-05-06T01:06:53.462Z,10.17
2016-05-06T01:07:53.448Z,10.28
2016-05-06T01:08:53.436Z,10.13
2016-05-06T01:09:53.298Z,10.04
2016-05-06T01:10:53.441Z,10.09
2016-05-06T01:11:53.428Z,10.12
2016-05-06T01:12:53.446Z,10.12
2016-05-06T01:13:53.418Z,10.07
2016-05-06T01:14:53.264Z,10.15
2016-05-06T01:15:53.423Z,10.13
2016-05-06T01:16:53.457Z,10.16
2016-05-06T01:17:53.444Z,10.17
2016-05-06T01:18:53.447Z,10.15
2016-05-06T01:19:53.434Z,10.25
2016-05-06T01:20:53.436Z,10.2
2016-05-06T01:21:53.423Z,10.17
2016-05-06T01:22:53.442Z,10.16
2016-05-06T01:23:53.429Z,10.19
2016-05-06T01:24:53.416Z,10.22
2016-05-06T01:25:53.949Z,10.09
2016-05-06T01:26:53.406Z,10.15
2016-05-06T01:27:53.408Z,10.16
2016-05-06T01:28:53.411Z,10.19
2016-05-06T01:29:53.413Z,10.15
2016-05-06T01:30:53.401Z,10.1
2016-05-06T01:31:53.404Z,10.13
2016-05-06T01:32:53.250Z,10.13
2016-05-06T01:33:53.409Z,9.98
2016-05-06T01:34:53.395Z,9.99
2016-05-06T01:35:53.415Z,10.01
2016-05-06T01:36:53.417Z,10.02
2016-05-06T01:37:53.388Z,9.99
2016-05-06T01:38:53.406Z,10.04
2016-05-06T01:39:53.395Z,10.02
2016-05-06T01:40:53.412Z,9.95
2016-05-06T01:41:53.414Z,9.94
2016-05-06T01:42:53.387Z,9.92
2016-05-06T01:43:53.389Z,9.99
2016-05-06T01:44:53.376Z,9.89
2016-05-06T01:45:53.425Z,10.01
2016-05-06T01:46:53.241Z,9.98
2016-05-06T01:47:53.400Z,10.02
2016-05-06T01:48:53.215Z,9.95
2016-05-06T01:49:53.405Z,10.01
2016-05-06T01:50:53.391Z,9.92
2016-05-06T01:51:53.380Z,9.99
2016-05-06T01:52:53.383Z,10.01
2016-05-06T01:53:53.385Z,10.01
2016-05-06T01:54:53.215Z,9.94
2016-05-06T01:55:53.703Z,9.98
2016-05-06T01:56:53.377Z,9.91
2016-05-06T01:57:53.364Z,9.86
2016-05-06T01:58:53.366Z,9.86
2016-05-06T01:59:53.369Z,10.01
2016-05-06T02:00:53.201Z,9.86
2016-05-06T02:01:53.374Z,9.89
2016-05-06T02:02:53.377Z,9.84
2016-05-06T02:03:53.208Z,9.87
2016-05-06T02:04:53.352Z,9.87
2016-05-06T02:05:53.354Z,9.87
2016-05-06T02:06:53.357Z,9.86
2016-05-06T02:07:53.344Z,9.82
2016-05-06T02:08:53.347Z,9.8
2016-05-06T02:09:53.350Z,9.82
2016-05-06T02:10:53.680Z,9.72
2016-05-06T02:11:53.198Z,9.69
2016-05-06T02:12:53.358Z,9.68
2016-05-06T02:13:53.329Z,9.64
2016-05-06T02:14:53.347Z,9.66
2016-05-06T02:15:53.381Z,9.65
2016-05-06T02:16:53.212Z,9.61
2016-05-06T02:17:53.340Z,9.55
2016-05-06T02:18:53.186Z,9.56
2016-05-06T02:19:53.345Z,9.56
2016-05-06T02:20:53.348Z,9.56
2016-05-06T02:21:53.335Z,9.54
2016-05-06T02:22:53.338Z,9.61
2016-05-06T02:23:53.328Z,9.62
2016-05-06T02:24:53.331Z,9.5
2016-05-06T02:25:53.334Z,9.58
2016-05-06T02:26:53.337Z,9.56
2016-05-06T02:27:53.323Z,9.54
2016-05-06T02:28:53.186Z,9.56
2016-05-06T02:29:53.328Z,9.54
2016-05-06T02:30:53.332Z,9.58
2016-05-06T02:31:53.334Z,9.56
2016-05-06T02:32:53.336Z,9.46
2016-05-06T02:33:53.308Z,9.46
2016-05-06T02:34:53.155Z,9.48
2016-05-06T02:35:53.345Z,9.5
2016-05-06T02:36:53.316Z,9.46
2016-05-06T02:37:53.164Z,9.41
2016-05-06T02:38:53.291Z,9.47
2016-05-06T02:39:53.294Z,9.44
2016-05-06T02:40:53.327Z,9.44
2016-05-06T02:41:53.313Z,9.36
2016-05-06T02:42:53.301Z,9.44
2016-05-06T02:43:53.320Z,9.37
2016-05-06T02:44:53.291Z,9.31
2016-05-06T02:45:53.309Z,9.32
2016-05-06T02:46:53.141Z,9.29
2016-05-06T02:47:53.284Z,9.32
2016-05-06T02:48:53.145Z,9.36
2016-05-06T02:49:53.117Z,9.23
2016-05-06T02:50:53.293Z,9.29
2016-05-06T02:51:53.279Z,9.36
2016-05-06T02:52:53.265Z,9.34
2016-05-06T02:53:53.285Z,9.29
2016-05-06T02:54:53.270Z,9.29
2016-05-06T02:55:53.306Z,9.32
2016-05-06T02:56:53.292Z,9.32
2016-05-06T02:57:53.123Z,9.34
2016-05-06T02:58:53.282Z,9.26
2016-05-06T02:59:53.285Z,9.23
2016-05-06T03:00:53.272Z,9.32
2016-05-06T03:01:53.274Z,9.18
2016-05-06T03:02:53.278Z,9.29
2016-05-06T03:03:53.280Z,9.28
2016-05-06T03:04:53.267Z,9.25
2016-05-06T03:05:53.285Z,9.32
2016-05-06T03:06:53.272Z,9.39
2016-05-06T03:07:53.244Z,9.22
2016-05-06T03:08:53.261Z,9.36
2016-05-06T03:09:53.264Z,9.29
2016-05-06T03:10:54.580Z,9.31
2016-05-06T03:11:53.255Z,9.31
2016-05-06T03:12:53.272Z,9.32
2016-05-06T03:13:53.338Z,9.26
2016-05-06T03:14:53.246Z,9.32
2016-05-06T03:15:53.094Z,9.29
2016-05-06T03:16:53.237Z,9.29
2016-05-06T03:17:53.099Z,9.36
2016-05-06T03:18:53.257Z,9.34
2016-05-06T03:19:53.245Z,9.32
2016-05-06T03:20:53.248Z,9.29
2016-05-06T03:21:53.234Z,9.32
2016-05-06T03:22:53.237Z,9.34
2016-05-06T03:23:53.240Z,9.26
2016-05-06T03:24:53.227Z,9.29
2016-05-06T03:25:53.073Z,9.36
2016-05-06T03:26:53.217Z,9.29
2016-05-06T03:27:53.220Z,9.34
2016-05-06T03:28:53.065Z,9.26
2016-05-06T03:29:53.209Z,9.25
2016-05-06T03:30:53.228Z,9.25
2016-05-06T03:31:53.230Z,9.23
2016-05-06T03:32:53.201Z,9.13
2016-05-06T03:33:53.204Z,9.25
2016-05-06T03:34:53.206Z,9.19
2016-05-06T03:35:53.209Z,9.21
2016-05-06T03:36:53.228Z,9.18
2016-05-06T03:37:53.200Z,9.1
2016-05-06T03:38:53.030Z,9.14
2016-05-06T03:39:53.205Z,9.1
2016-05-06T03:40:53.208Z,9.13
2016-05-06T03:41:53.203Z,9.13
2016-05-06T03:42:53.205Z,9.1
2016-05-06T03:43:53.018Z,9.1
2016-05-06T03:44:53.166Z,9.11
2016-05-06T03:45:53.169Z,9.08
2016-05-06T03:46:53.172Z,9.03
2016-05-06T03:47:53.034Z,9.06
2016-05-06T03:48:53.161Z,9.14
2016-05-06T03:49:53.008Z,9.1
2016-05-06T03:50:53.151Z,9.1
2016-05-06T03:51:53.029Z,9.14
2016-05-06T03:52:53.188Z,9.19
2016-05-06T03:53:53.003Z,9.18
2016-05-06T03:54:53.147Z,9.16
2016-05-06T03:55:53.040Z,9.18
2016-05-06T03:56:53.058Z,9.16
2016-05-06T03:57:53.185Z,9.18
2016-05-06T03:58:53.204Z,9.13
2016-05-06T03:59:53.145Z,9.21
2016-05-06T04:00:52.991Z,9.16
2016-05-06T04:01:53.134Z,9.29
2016-05-06T04:02:52.980Z,9.13
2016-05-06T04:03:53.124Z,9.26
2016-05-06T04:04:53.126Z,9.34
2016-05-06T04:05:53.128Z,9.31
2016-05-06T04:06:53.148Z,9.31
2016-05-06T04:07:53.135Z,9.26
2016-05-06T04:08:53.122Z,9.26
2016-05-06T04:09:52.952Z,9.31
2016-05-06T04:10:53.581Z,9.19
2016-05-06T04:11:53.129Z,9.31
2016-05-06T04:12:53.117Z,9.23
2016-05-06T04:13:53.119Z,9.29
2016-05-06T04:14:53.138Z,9.26
2016-05-06T04:15:53.125Z,9.26
2016-05-06T04:16:52.940Z,9.37
2016-05-06T04:17:53.114Z,9.37
2016-05-06T04:18:52.960Z,9.32
2016-05-06T04:19:53.105Z,9.4
2016-05-06T04:20:53.122Z,9.4
2016-05-06T04:21:53.125Z,9.36
2016-05-06T04:22:53.143Z,9.44
2016-05-06T04:23:53.099Z,9.54
2016-05-06T04:24:53.087Z,9.58
2016-05-06T04:25:54.182Z,9.77
2016-05-06T04:26:53.092Z,10.02
2016-05-06T04:27:53.095Z,10.07
2016-05-06T04:28:53.082Z,10.33
2016-05-06T04:29:53.068Z,10.59
2016-05-06T04:30:53.087Z,10.82
2016-05-06T04:31:53.074Z,11.05
2016-05-06T04:32:53.124Z,11.22
2016-05-06T04:33:53.095Z,11.41
2016-05-06T04:34:53.098Z,11.6
2016-05-06T04:35:53.085Z,11.75
2016-05-06T04:36:53.087Z,11.9
2016-05-06T04:37:53.106Z,12.17
2016-05-06T04:38:53.092Z,12.28
2016-05-06T04:39:53.095Z,12.43
2016-05-06T04:40:53.333Z,12.58
2016-05-06T04:41:53.070Z,12.65
2016-05-06T04:42:52.931Z,12.78
2016-05-06T04:43:52.934Z,12.86
2016-05-06T04:44:53.109Z,13.04
2016-05-06T04:45:52.924Z,13.18
2016-05-06T04:46:53.083Z,13.46
2016-05-06T04:47:53.086Z,13.52
2016-05-06T04:48:53.105Z,13.57
2016-05-06T04:49:53.122Z,13.71
2016-05-06T04:50:53.110Z,13.86
2016-05-06T04:51:53.112Z,13.97
2016-05-06T04:52:52.943Z,14.12
2016-05-06T04:53:53.102Z,14.18
2016-05-06T04:54:53.105Z,14.36
2016-05-06T04:55:53.482Z,14.54
2016-05-06T04:56:53.094Z,14.65
2016-05-06T04:57:53.113Z,14.89
2016-05-06T04:58:52.974Z,14.89
2016-05-06T04:59:52.977Z,14.88
2016-05-06T05:00:53.120Z,14.68
2016-05-06T05:01:53.155Z,14.53
2016-05-06T05:02:53.126Z,14.35
2016-05-06T05:03:53.159Z,14.2
2016-05-06T05:04:53.132Z,14.12
2016-05-06T05:05:53.150Z,14.11
2016-05-06T05:06:52.981Z,14.1
2016-05-06T05:07:53.139Z,14.15
2016-05-06T05:08:53.159Z,14.26
2016-05-06T05:09:53.145Z,14.41
2016-05-06T05:10:53.046Z,14.58
2016-05-06T05:11:53.236Z,14.6
2016-05-06T05:12:53.270Z,14.97
2016-05-06T05:13:53.336Z,15.18
2016-05-06T05:14:53.370Z,15.36
2016-05-06T05:15:53.421Z,15.51
2016-05-06T05:16:53.456Z,15.62
2016-05-06T05:17:53.445Z,15.76
2016-05-06T05:18:53.495Z,15.8
2016-05-06T05:19:53.514Z,16.05
2016-05-06T05:20:53.545Z,16.28
2016-05-06T05:21:53.538Z,16.36
2016-05-06T05:22:53.532Z,16.39
2016-05-06T05:23:53.571Z,16.49
2016-05-06T05:24:53.581Z,16.49
2016-05-06T05:25:53.571Z,16.68
2016-05-06T05:26:53.577Z,16.79
2016-05-06T05:27:53.425Z,16.79
2016-05-06T05:28:53.587Z,16.9
2016-05-06T05:29:53.591Z,16.9
2016-05-06T05:30:53.611Z,16.94
2016-05-06T05:31:53.443Z,17.06
2016-05-06T05:32:53.462Z,17.05
2016-05-06T05:33:53.638Z,17.2
2016-05-06T05:34:53.625Z,17.16
2016-05-06T05:35:53.629Z,17.31
2016-05-06T05:36:53.647Z,17.38
2016-05-06T05:37:53.651Z,17.38
2016-05-06T05:38:53.497Z,17.7
2016-05-06T05:39:53.703Z,17.8
2016-05-06T05:40:53.941Z,17.86
2016-05-06T05:41:53.694Z,17.9
2016-05-06T05:42:53.665Z,18.03
2016-05-06T05:43:53.683Z,18.03
2016-05-06T05:44:53.702Z,18.19
2016-05-06T05:45:53.719Z,18.19
2016-05-06T05:46:53.551Z,18.25
2016-05-06T05:47:53.725Z,18.33
2016-05-06T05:48:53.760Z,18.28
2016-05-06T05:49:53.730Z,18.31
2016-05-06T05:50:53.765Z,18.26
2016-05-06T05:51:53.767Z,18.19
2016-05-06T05:52:53.754Z,17.97
2016-05-06T05:53:53.741Z,17.49
2016-05-06T05:54:53.588Z,17.14
2016-05-06T05:55:53.840Z,17.04
2016-05-06T05:56:53.765Z,16.84
2016-05-06T05:57:53.831Z,16.78
2016-05-06T05:58:53.786Z,16.68
2016-05-06T05:59:53.789Z,16.35
2016-05-06T06:00:53.651Z,15.94
2016-05-06T06:01:53.778Z,15.7
2016-05-06T06:02:53.797Z,15.27
2016-05-06T06:03:53.659Z,15.09
2016-05-06T06:04:53.802Z,14.79
2016-05-06T06:05:53.680Z,14.65
2016-05-06T06:06:53.839Z,14.63
2016-05-06T06:07:53.826Z,14.63
2016-05-06T06:08:53.844Z,14.91
2016-05-06T06:09:53.847Z,15.27
2016-05-06T06:10:54.333Z,15.55
2016-05-06T06:11:53.852Z,15.97
2016-05-06T06:12:53.839Z,16.38
2016-05-06T06:13:53.858Z,16.81
2016-05-06T06:14:53.861Z,17.3
2016-05-06T06:15:53.863Z,17.65
2016-05-06T06:16:53.865Z,18.05
2016-05-06T06:17:53.869Z,18.49
2016-05-06T06:18:53.887Z,18.86
2016-05-06T06:19:53.561Z,19.16
2016-05-06T06:20:53.877Z,19.33
2016-05-06T06:21:53.895Z,19.73
2016-05-06T06:22:53.898Z,19.92
2016-05-06T06:23:53.900Z,20.16
2016-05-06T06:24:53.919Z,20.39
2016-05-06T06:25:54.046Z,20.69
2016-05-06T06:26:53.940Z,20.77
2016-05-06T06:27:53.942Z,20.96
2016-05-06T06:28:53.960Z,21.21
2016-05-06T06:29:53.947Z,21.43
2016-05-06T06:30:53.966Z,21.6
2016-05-06T06:31:53.797Z,21.58
2016-05-06T06:32:53.799Z,21.6
2016-05-06T06:33:53.959Z,21.75
2016-05-06T06:34:53.992Z,21.57
2016-05-06T06:35:53.838Z,21.45
2016-05-06T06:36:53.998Z,21.45
2016-05-06T06:37:54.000Z,21.5
2016-05-06T06:38:53.862Z,21.57
2016-05-06T06:39:53.865Z,21.46
2016-05-06T06:40:54.430Z,21.43
2016-05-06T06:41:54.042Z,21.37
2016-05-06T06:42:54.029Z,21.35
2016-05-06T06:43:53.907Z,21.35
2016-05-06T06:44:54.066Z,21.36
2016-05-06T06:45:54.085Z,21.25
2016-05-06T06:46:54.088Z,21.29
2016-05-06T06:47:53.949Z,21.25
2016-05-06T06:48:54.108Z,21.17
2016-05-06T06:49:54.204Z,21.21
2016-05-06T06:50:54.113Z,21.32
2016-05-06T06:51:54.132Z,21.24
2016-05-06T06:52:54.150Z,21.29
2016-05-06T06:53:54.012Z,21.45
2016-05-06T06:54:54.187Z,21.55
2016-05-06T06:55:54.361Z,21.64
2016-05-06T06:56:54.176Z,21.77
2016-05-06T06:57:54.210Z,21.91
2016-05-06T06:58:54.040Z,22
2016-05-06T06:59:54.248Z,22.15
2016-05-06T07:00:54.265Z,22.1
2016-05-06T07:01:54.081Z,22.11
2016-05-06T07:02:54.256Z,22.38
2016-05-06T07:03:54.242Z,22.28
2016-05-06T07:04:54.244Z,22.32
2016-05-06T07:05:54.247Z,21.99
2016-05-06T07:06:54.250Z,22.08
2016-05-06T07:07:54.300Z,22.07
2016-05-06T07:08:54.146Z,22.28
2016-05-06T07:09:54.290Z,22.26
2016-05-06T07:10:54.511Z,22.28
2016-05-06T07:11:54.325Z,22.25
2016-05-06T07:12:54.328Z,22.29
2016-05-06T07:13:54.316Z,22.26
2016-05-06T07:14:54.333Z,22.13
2016-05-06T07:15:54.196Z,22.15
2016-05-06T07:16:54.386Z,22.26
2016-05-06T07:17:54.389Z,22.43
2016-05-06T07:18:54.377Z,22.44
2016-05-06T07:19:54.238Z,22.36
2016-05-06T07:20:54.382Z,22.02
2016-05-06T07:21:54.399Z,21.46
2016-05-06T07:22:54.438Z,21.21
2016-05-06T07:23:54.332Z,20.69
2016-05-06T07:24:54.272Z,20.62
2016-05-06T07:25:54.853Z,20.51
2016-05-06T07:26:54.871Z,20.72
2016-05-06T07:27:54.437Z,20.85
2016-05-06T07:28:54.439Z,20.99
2016-05-06T07:29:54.473Z,20.96
2016-05-06T07:30:54.476Z,21.12
2016-05-06T07:31:54.479Z,21.51
2016-05-06T07:32:54.482Z,21.98
2016-05-06T07:33:54.484Z,22.33
2016-05-06T07:34:54.486Z,22.81
2016-05-06T07:35:54.505Z,22.83
2016-05-06T07:36:54.523Z,22.91
2016-05-06T07:37:54.541Z,23.1
2016-05-06T07:38:54.544Z,23.39
2016-05-06T07:39:54.375Z,23.44
2016-05-06T07:40:54.409Z,23.65
2016-05-06T07:41:55.036Z,23.69
2016-05-06T07:42:54.555Z,23.58
2016-05-06T07:43:54.574Z,23.44
2016-05-06T07:44:54.435Z,22.98
2016-05-06T07:45:54.610Z,22.29
2016-05-06T07:46:54.613Z,21.95
2016-05-06T07:47:54.630Z,21.12
2016-05-06T07:48:54.634Z,20.72
2016-05-06T07:49:54.636Z,20.32
2016-05-06T07:50:54.638Z,20.66
2016-05-06T07:51:56.610Z,21.06
2016-05-06T07:52:56.644Z,21.24
2016-05-06T07:53:56.568Z,21.62
2016-05-06T07:54:54.665Z,22.1
2016-05-06T07:55:54.684Z,22.35
2016-05-06T07:56:55.155Z,22.65
2016-05-06T07:57:54.532Z,23.02
2016-05-06T07:58:54.708Z,23.36
2016-05-06T07:59:55.929Z,23.68
2016-05-06T08:00:56.822Z,23.66
2016-05-06T08:01:56.106Z,23.77
2016-05-06T08:02:54.750Z,23.77
2016-05-06T08:03:54.752Z,23.63
2016-05-06T08:04:54.739Z,23.68
2016-05-06T08:05:54.758Z,23.8
2016-05-06T08:06:54.776Z,23.74
2016-05-06T08:07:54.638Z,23.93
2016-05-06T08:08:54.781Z,24.24
2016-05-06T08:09:54.815Z,24.32
2016-05-06T08:10:54.817Z,24.48
2016-05-06T08:11:54.664Z,24.47
2016-05-06T08:12:54.838Z,24.47
2016-05-06T08:13:54.686Z,24.55
2016-05-06T08:14:54.844Z,24.43
2016-05-06T08:15:54.863Z,24.51
2016-05-06T08:16:54.865Z,24.61
2016-05-06T08:17:55.977Z,24.88
2016-05-06T08:18:54.730Z,24.5
2016-05-06T08:19:54.920Z,24.53
2016-05-06T08:20:54.938Z,24.68
2016-05-06T08:21:54.754Z,24.6
2016-05-06T08:22:54.944Z,24.69
2016-05-06T08:23:54.962Z,24.68
2016-05-06T08:24:54.777Z,24.66
2016-05-06T08:25:54.937Z,24.68
2016-05-06T08:26:55.032Z,24.73
2016-05-06T08:27:54.973Z,24.51
2016-05-06T08:28:54.976Z,24.53
2016-05-06T08:29:54.993Z,24.47
2016-05-06T08:30:55.012Z,24.48
2016-05-06T08:31:54.999Z,24.47
2016-05-06T08:32:55.049Z,24.26
2016-05-06T08:33:55.036Z,24.08
2016-05-06T08:34:55.039Z,23.87
2016-05-06T08:35:55.042Z,23.73
2016-05-06T08:36:55.059Z,23.63
2016-05-06T08:37:55.047Z,23.81
2016-05-06T08:38:55.096Z,23.78
2016-05-06T08:39:54.928Z,23.8
2016-05-06T08:40:55.570Z,23.98
2016-05-06T08:41:54.808Z,23.96
2016-05-06T08:42:55.107Z,23.71
2016-05-06T08:43:54.969Z,23.36
2016-05-06T08:44:55.128Z,22.78
2016-05-06T08:45:54.974Z,22.25
2016-05-06T08:46:55.133Z,21.72
2016-05-06T08:47:55.152Z,21.4
2016-05-06T08:48:55.185Z,21.07
2016-05-06T08:49:55.188Z,20.84
2016-05-06T08:50:55.019Z,20.72
2016-05-06T08:51:55.037Z,20.55
2016-05-06T08:52:55.197Z,20.34
2016-05-06T08:53:55.199Z,20.39
2016-05-06T08:54:55.249Z,20.28
2016-05-06T08:55:55.704Z,20.24
2016-05-06T08:56:55.566Z,20.03
2016-05-06T08:57:55.241Z,20.03
2016-05-06T08:58:55.260Z,20.07
2016-05-06T08:59:55.606Z,19.99
2016-05-06T09:00:55.281Z,20.02
2016-05-06T09:01:55.283Z,20.02
2016-05-06T09:02:55.287Z,19.99
2016-05-06T09:03:55.273Z,20.03
2016-05-06T09:04:55.323Z,20.21
2016-05-06T09:05:55.356Z,20.24
2016-05-06T09:06:55.281Z,20.21
2016-05-06T09:07:55.408Z,20.24
2016-05-06T09:08:55.333Z,20.22
2016-05-06T09:09:55.508Z,20.22
2016-05-06T09:10:55.870Z,20.28
2016-05-06T09:11:55.873Z,20.29
2016-05-06T09:12:55.531Z,20.07
2016-05-06T09:13:55.222Z,19.95
2016-05-06T09:14:55.364Z,19.82
2016-05-06T09:15:55.367Z,19.7
2016-05-06T09:16:55.370Z,19.71
2016-05-06T09:17:55.373Z,19.79
2016-05-06T09:18:55.235Z,19.82
2016-05-06T09:19:55.394Z,19.79
2016-05-06T09:20:55.396Z,19.92
2016-05-06T09:21:55.416Z,19.99
2016-05-06T09:22:55.402Z,19.92
2016-05-06T09:23:55.263Z,20.04
2016-05-06T09:24:55.267Z,20.19
2016-05-06T09:25:55.099Z,20.22
2016-05-06T09:26:55.663Z,20.34
2016-05-06T09:27:55.275Z,20.39
2016-05-06T09:28:55.293Z,20.37
2016-05-06T09:29:55.296Z,20.39
2016-05-06T09:30:55.157Z,20.43
2016-05-06T09:31:55.301Z,20.34
2016-05-06T09:32:55.460Z,20.4
2016-05-06T09:33:55.213Z,20.31
2016-05-06T09:34:55.498Z,20.28
2016-05-06T09:35:55.312Z,20.31
2016-05-06T09:36:55.487Z,20.34
2016-05-06T09:37:55.490Z,20.36
2016-05-06T09:38:55.492Z,20.34
2016-05-06T09:39:55.511Z,20.39
2016-05-06T09:40:55.529Z,20.32
2016-05-06T09:41:55.984Z,20.26
2016-05-06T09:42:55.347Z,20.28
2016-05-06T09:43:55.381Z,20.26
2016-05-06T09:44:55.525Z,20.26
2016-05-06T09:45:55.527Z,20.29
2016-05-06T09:46:55.530Z,20.36
2016-05-06T09:47:55.392Z,20.56
2016-05-06T09:48:55.597Z,20.58
2016-05-06T09:49:55.583Z,20.65
2016-05-06T09:50:55.431Z,20.66
2016-05-06T09:51:55.589Z,20.7
2016-05-06T09:52:55.577Z,20.62
2016-05-06T09:53:55.595Z,20.69
2016-05-06T09:54:55.582Z,20.85
2016-05-06T09:55:55.429Z,20.82
2016-05-06T09:56:55.603Z,20.96
2016-05-06T09:57:55.605Z,20.96
2016-05-06T09:58:55.640Z,21.07
2016-05-06T09:59:55.626Z,21
2016-05-06T10:00:55.614Z,21.15
2016-05-06T10:01:55.632Z,21.12
2016-05-06T10:02:55.634Z,21.21
2016-05-06T10:03:55.638Z,21.36
2016-05-06T10:04:55.640Z,21.37
2016-05-06T10:05:55.626Z,21.51
2016-05-06T10:06:55.677Z,21.5
2016-05-06T10:07:55.664Z,21.64
2016-05-06T10:08:56.010Z,21.61
2016-05-06T10:09:55.763Z,21.57
2016-05-06T10:10:55.797Z,21.73
2016-05-06T10:11:55.534Z,21.82
2016-05-06T10:12:55.537Z,21.88
2016-05-06T10:13:55.743Z,21.85
2016-05-06T10:14:55.776Z,21.92
2016-05-06T10:15:55.701Z,21.92
2016-05-06T10:16:55.563Z,21.92
2016-05-06T10:17:55.722Z,21.91
2016-05-06T10:18:55.709Z,21.96
2016-05-06T10:19:55.727Z,22.1
2016-05-06T10:20:55.747Z,22.17
2016-05-06T10:21:55.749Z,22.26
2016-05-06T10:22:55.752Z,22.26
2016-05-06T10:23:55.769Z,22.13
2016-05-06T10:24:55.771Z,22.02
2016-05-06T10:25:55.760Z,22
2016-05-06T10:26:55.824Z,22.07
2016-05-06T10:27:55.780Z,21.93
2016-05-06T10:28:55.814Z,21.92
2016-05-06T10:29:55.645Z,21.88
2016-05-06T10:30:55.819Z,21.76
2016-05-06T10:31:55.807Z,21.61
2016-05-06T10:32:55.654Z,21.6
2016-05-06T10:33:55.812Z,21.57
2016-05-06T10:34:55.690Z,21.61
2016-05-06T10:35:55.848Z,21.6
2016-05-06T10:36:55.835Z,21.62
2016-05-06T10:37:55.870Z,21.6
2016-05-06T10:38:55.856Z,21.6
2016-05-06T10:39:55.703Z,21.7
2016-05-06T10:40:55.846Z,21.69
2016-05-06T10:41:57.162Z,21.77
2016-05-06T10:42:55.867Z,21.82
2016-05-06T10:43:55.729Z,21.83
2016-05-06T10:44:55.904Z,21.72
2016-05-06T10:45:55.734Z,21.83
2016-05-06T10:46:55.894Z,21.92
2016-05-06T10:47:55.897Z,21.99
2016-05-06T10:48:55.899Z,21.93
2016-05-06T10:49:55.762Z,21.85
2016-05-06T10:50:55.920Z,21.99
2016-05-06T10:51:55.938Z,21.95
2016-05-06T10:52:55.925Z,21.98
2016-05-06T10:53:55.944Z,22
2016-05-06T10:54:55.931Z,21.91
2016-05-06T10:55:55.950Z,22.02
2016-05-06T10:56:56.468Z,22.11
2016-05-06T10:57:55.986Z,22.18
2016-05-06T10:58:55.957Z,22.23
2016-05-06T10:59:55.961Z,22.23
2016-05-06T11:00:55.978Z,22.28
2016-05-06T11:01:55.982Z,22.23
2016-05-06T11:02:55.984Z,22.26
2016-05-06T11:03:56.002Z,22.23
2016-05-06T11:04:56.020Z,22.06
2016-05-06T11:05:56.023Z,22.1
2016-05-06T11:06:56.026Z,22.15
2016-05-06T11:07:56.044Z,22.2
2016-05-06T11:08:56.015Z,22.13
2016-05-06T11:09:56.034Z,22.15
2016-05-06T11:10:55.896Z,22.08
2016-05-06T11:11:56.743Z,22.18
2016-05-06T11:12:56.057Z,22.28
2016-05-06T11:13:55.904Z,22.33
2016-05-06T11:14:56.079Z,22.43
2016-05-06T11:15:56.097Z,22.57
2016-05-06T11:16:56.068Z,22.66
2016-05-06T11:17:56.071Z,22.62
2016-05-06T11:18:56.089Z,22.66
2016-05-06T11:19:55.920Z,22.65
2016-05-06T11:20:56.142Z,22.59
2016-05-06T11:21:56.114Z,22.59
2016-05-06T11:22:56.131Z,22.43
2016-05-06T11:23:56.118Z,22.43
2016-05-06T11:24:55.965Z,22.29
2016-05-06T11:25:56.124Z,22.35
2016-05-06T11:26:56.174Z,22.38
2016-05-06T11:27:56.005Z,22.48
2016-05-06T11:28:56.179Z,22.51
2016-05-06T11:29:56.150Z,22.62
2016-05-06T11:30:56.169Z,22.66
2016-05-06T11:31:56.187Z,22.68
2016-05-06T11:32:56.221Z,22.65
2016-05-06T11:33:56.177Z,22.6
2016-05-06T11:34:56.210Z,22.59
2016-05-06T11:35:56.214Z,22.63
2016-05-06T11:36:56.201Z,22.75
2016-05-06T11:37:56.203Z,22.7
2016-05-06T11:38:56.222Z,22.8
2016-05-06T11:39:56.068Z,22.69
2016-05-06T11:40:56.055Z,22.76
2016-05-06T11:41:56.245Z,22.75
2016-05-06T11:42:56.248Z,22.65
2016-05-06T11:43:56.438Z,22.55
2016-05-06T11:44:56.253Z,22.51
2016-05-06T11:45:56.256Z,22.48
2016-05-06T11:46:56.259Z,22.47
2016-05-06T11:47:56.245Z,22.44
2016-05-06T11:48:56.311Z,22.48
2016-05-06T11:49:56.282Z,22.5
2016-05-06T11:50:57.254Z,22.44
2016-05-06T11:51:56.116Z,22.45
2016-05-06T11:52:56.150Z,22.54
2016-05-06T11:53:56.309Z,22.54
2016-05-06T11:54:56.342Z,22.54
2016-05-06T11:55:56.002Z,22.57
2016-05-06T11:56:56.300Z,22.53
2016-05-06T11:57:56.320Z,22.63
2016-05-06T11:58:57.556Z,22.63
2016-05-06T11:59:56.355Z,22.65
2016-05-06T12:00:56.359Z,22.76
2016-05-06T12:01:56.189Z,22.81
2016-05-06T12:02:56.364Z,22.83
2016-05-06T12:03:56.398Z,22.84
2016-05-06T12:04:56.370Z,22.75
2016-05-06T12:05:56.388Z,22.84
2016-05-06T12:06:56.249Z,22.88
2016-05-06T12:07:56.394Z,22.96
2016-05-06T12:08:56.396Z,22.98
2016-05-06T12:09:56.383Z,22.98
2016-05-06T12:10:56.401Z,23.02
2016-05-06T12:11:56.451Z,23.06
2016-05-06T12:12:56.407Z,23.13
2016-05-06T12:13:56.409Z,23.23
2016-05-06T12:14:56.428Z,23.34
2016-05-06T12:15:56.461Z,23.4
2016-05-06T12:16:56.449Z,23.58
2016-05-06T12:17:56.326Z,23.58
2016-05-06T12:18:56.298Z,23.62
2016-05-06T12:19:56.457Z,23.61
2016-05-06T12:20:56.475Z,23.65
2016-05-06T12:21:56.493Z,23.62
2016-05-06T12:22:56.512Z,23.68
2016-05-06T12:23:56.342Z,23.69
2016-05-06T12:24:56.501Z,23.77
2016-05-06T12:25:56.348Z,23.84
2016-05-06T12:26:57.367Z,23.74
2016-05-06T12:27:56.509Z,23.68
2016-05-06T12:28:56.527Z,23.65
2016-05-06T12:29:56.547Z,23.65
2016-05-06T12:30:56.549Z,23.65
2016-05-06T12:31:56.552Z,23.61
2016-05-06T12:32:56.555Z,23.62
2016-05-06T12:33:56.447Z,23.61
2016-05-06T12:34:56.560Z,23.78
2016-05-06T12:35:56.577Z,23.93
2016-05-06T12:36:56.581Z,23.92
2016-05-06T12:37:56.583Z,23.93
2016-05-06T12:38:56.460Z,23.92
2016-05-06T12:39:56.605Z,23.93
2016-05-06T12:40:56.498Z,23.91
2016-05-06T12:41:56.671Z,23.83
2016-05-06T12:42:56.644Z,23.84
2016-05-06T12:43:56.615Z,23.92
2016-05-06T12:44:56.509Z,23.87
2016-05-06T12:45:56.667Z,23.93
2016-05-06T12:46:56.654Z,23.93
2016-05-06T12:47:56.657Z,23.95
2016-05-06T12:48:56.660Z,23.91
2016-05-06T12:49:56.523Z,23.99
2016-05-06T12:50:56.681Z,24.21
2016-05-06T12:51:56.731Z,24.24
2016-05-06T12:52:56.545Z,24.32
2016-05-06T12:53:56.704Z,24.23
2016-05-06T12:54:56.707Z,24.17
2016-05-06T12:55:56.741Z,24.1
2016-05-06T12:56:56.900Z,24.05
2016-05-06T12:57:56.731Z,23.98
2016-05-06T12:58:56.765Z,23.91
2016-05-06T12:59:56.767Z,23.74
2016-05-06T13:00:56.739Z,23.62